createdAt,value
2015-02-28T00:00:06.230Z,101108
2015-02-28T00:00:19.743Z,101117
2015-02-28T00:00:33.110Z,101102
2015-02-28T00:00:46.539Z,101111
2015-02-28T00:00:59.943Z,101108
2015-02-28T00:01:13.410Z,101102
2015-02-28T00:01:26.873Z,101105
2015-02-28T00:01:40.266Z,101114
2015-02-28T00:01:53.736Z,101111
2015-02-28T00:02:07.235Z,101107
2015-02-28T00:02:20.597Z,101111
2015-02-28T00:02:34.045Z,101120
2015-02-28T00:02:47.573Z,101114
2015-02-28T00:03:00.965Z,101113
2015-02-28T00:03:14.371Z,101107
2015-02-28T00:03:27.923Z,101110
2015-02-28T00:03:41.380Z,101096
2015-02-28T00:03:54.864Z,101104
2015-02-28T00:04:08.258Z,101107
2015-02-28T00:04:21.720Z,101104
2015-02-28T00:04:35.245Z,101107
2015-02-28T00:04:48.654Z,101101
2015-02-28T00:05:02.049Z,101093
2015-02-28T00:05:15.588Z,101101
2015-02-28T00:05:29.004Z,101107
2015-02-28T00:05:42.435Z,101116
2015-02-28T00:05:55.937Z,101101
2015-02-28T00:06:09.404Z,101101
2015-02-28T00:06:22.793Z,101113
2015-02-28T00:06:36.280Z,101110
2015-02-28T00:06:49.687Z,101107
2015-02-28T00:07:03.205Z,101110
2015-02-28T00:07:16.667Z,101107
2015-02-28T00:07:30.048Z,101104
2015-02-28T00:07:43.536Z,101110
2015-02-28T00:07:56.997Z,101116
2015-02-28T00:08:10.379Z,101116
2015-02-28T00:08:23.850Z,101101
2015-02-28T00:08:37.369Z,101104
2015-02-28T00:08:50.786Z,101104
2015-02-28T00:09:04.300Z,101113
2015-02-28T00:09:17.845Z,101107
2015-02-28T00:09:31.268Z,101100
2015-02-28T00:09:44.781Z,101119
2015-02-28T00:09:58.181Z,101103
2015-02-28T00:10:11.668Z,101116
2015-02-28T00:10:25.163Z,101110
2015-02-28T00:10:38.540Z,101095
2015-02-28T00:10:52.020Z,101106
2015-02-28T00:11:05.530Z,101106
2015-02-28T00:11:18.879Z,101103
2015-02-28T00:11:32.295Z,101106
2015-02-28T00:11:45.811Z,101112
2015-02-28T00:11:59.237Z,101100
2015-02-28T00:12:12.619Z,101106
2015-02-28T00:12:26.117Z,101121
2015-02-28T00:12:39.583Z,101115
2015-02-28T00:12:53.101Z,101095
2015-02-28T00:13:06.478Z,101109
2015-02-28T00:13:19.896Z,101112
2015-02-28T00:13:33.390Z,101103
2015-02-28T00:13:46.796Z,101100
2015-02-28T00:14:00.203Z,101109
2015-02-28T00:14:13.762Z,101088
2015-02-28T00:14:27.203Z,101118
2015-02-28T00:14:40.607Z,101103
2015-02-28T00:14:54.141Z,101095
2015-02-28T00:15:07.641Z,101103
2015-02-28T00:15:21.137Z,101103
2015-02-28T00:15:34.577Z,101112
2015-02-28T00:15:47.991Z,101106
2015-02-28T00:16:02.003Z,101121
2015-02-28T00:16:15.449Z,101106
2015-02-28T00:16:28.809Z,101115
2015-02-28T00:16:42.326Z,101103
2015-02-28T00:16:55.784Z,101115
2015-02-28T00:17:09.153Z,101100
2015-02-28T00:17:22.627Z,101103
2015-02-28T00:17:36.122Z,101106
2015-02-28T00:17:49.501Z,101109
2015-02-28T00:18:02.975Z,101109
2015-02-28T00:18:16.375Z,101112
2015-02-28T00:18:29.881Z,101115
2015-02-28T00:18:43.369Z,101106
2015-02-28T00:18:56.763Z,101112
2015-02-28T00:19:10.260Z,101121
2015-02-28T00:19:23.765Z,101118
2015-02-28T00:19:37.133Z,101115
2015-02-28T00:19:50.620Z,101105
2015-02-28T00:20:04.135Z,101108
2015-02-28T00:20:17.521Z,101108
2015-02-28T00:20:30.982Z,101108
2015-02-28T00:20:44.543Z,101115
2015-02-28T00:20:57.981Z,101115
2015-02-28T00:21:11.450Z,101115
2015-02-28T00:21:24.965Z,101121
2015-02-28T00:21:38.381Z,101094
2015-02-28T00:21:51.763Z,101111
2015-02-28T00:22:05.286Z,101114
2015-02-28T00:22:18.744Z,101094
2015-02-28T00:22:32.120Z,101111
2015-02-28T00:22:45.708Z,101108
2015-02-28T00:22:59.192Z,101108
2015-02-28T00:23:12.572Z,101102
2015-02-28T00:23:26.021Z,101117
2015-02-28T00:23:39.556Z,101102
2015-02-28T00:23:52.967Z,101120
2015-02-28T00:24:06.450Z,101099
2015-02-28T00:24:19.831Z,101105
2015-02-28T00:24:33.326Z,101111
2015-02-28T00:24:46.832Z,101105
2015-02-28T00:25:00.229Z,101105
2015-02-28T00:25:13.712Z,101108
2015-02-28T00:25:27.251Z,101114
2015-02-28T00:25:40.653Z,101111
2015-02-28T00:25:54.101Z,101117
2015-02-28T00:26:07.638Z,101111
2015-02-28T00:26:21.074Z,101114
2015-02-28T00:26:34.471Z,101123
2015-02-28T00:26:47.933Z,101102
2015-02-28T00:27:01.404Z,101111
2015-02-28T00:27:14.910Z,101117
2015-02-28T00:27:28.273Z,101111
2015-02-28T00:27:41.709Z,101114
2015-02-28T00:27:55.223Z,101105
2015-02-28T00:28:08.629Z,101104
2015-02-28T00:28:22.034Z,101117
2015-02-28T00:28:35.559Z,101114
2015-02-28T00:28:48.993Z,101111
2015-02-28T00:29:02.350Z,101107
2015-02-28T00:29:15.892Z,101104
2015-02-28T00:29:29.333Z,101117
2015-02-28T00:29:42.796Z,101126
2015-02-28T00:29:56.192Z,101110
2015-02-28T00:30:09.630Z,101114
2015-02-28T00:30:23.137Z,101120
2015-02-28T00:30:36.607Z,101107
2015-02-28T00:30:50.031Z,101111
2015-02-28T00:31:03.558Z,101104
2015-02-28T00:31:17.031Z,101104
2015-02-28T00:31:30.427Z,101113
2015-02-28T00:31:43.936Z,101116
2015-02-28T00:31:57.457Z,101116
2015-02-28T00:32:10.816Z,101123
2015-02-28T00:32:24.275Z,101116
2015-02-28T00:32:37.685Z,101119
2015-02-28T00:32:51.188Z,101113
2015-02-28T00:33:04.643Z,101110
2015-02-28T00:33:18.012Z,101125
2015-02-28T00:33:31.468Z,101122
2015-02-28T00:33:44.961Z,101110
2015-02-28T00:33:58.341Z,101107
2015-02-28T00:34:11.827Z,101107
2015-02-28T00:34:25.380Z,101110
2015-02-28T00:34:38.775Z,101116
2015-02-28T00:34:52.193Z,101116
2015-02-28T00:35:05.813Z,101122
2015-02-28T00:35:19.254Z,101119
2015-02-28T00:35:32.748Z,101116
2015-02-28T00:35:46.181Z,101113
2015-02-28T00:35:59.674Z,101113
2015-02-28T00:36:13.219Z,101128
2015-02-28T00:36:26.659Z,101119
2015-02-28T00:36:40.123Z,101128
2015-02-28T00:36:53.656Z,101131
2015-02-28T00:37:07.112Z,101107
2015-02-28T00:37:20.554Z,101119
2015-02-28T00:37:34.135Z,101119
2015-02-28T00:37:47.699Z,101125
2015-02-28T00:38:01.121Z,101122
2015-02-28T00:38:14.651Z,101122
2015-02-28T00:38:28.096Z,101119
2015-02-28T00:38:41.654Z,101116
2015-02-28T00:38:55.048Z,101116
2015-02-28T00:39:08.465Z,101122
2015-02-28T00:39:22.020Z,101119
2015-02-28T00:39:35.453Z,101119
2015-02-28T00:39:48.811Z,101125
2015-02-28T00:40:02.306Z,101122
2015-02-28T00:40:15.782Z,101128
2015-02-28T00:40:29.151Z,101128
2015-02-28T00:40:42.652Z,101131
2015-02-28T00:40:56.129Z,101137
2015-02-28T00:41:09.556Z,101134
2015-02-28T00:41:22.974Z,101131
2015-02-28T00:41:36.358Z,101125
2015-02-28T00:41:49.890Z,101118
2015-02-28T00:42:03.340Z,101137
2015-02-28T00:42:16.742Z,101125
2015-02-28T00:42:30.240Z,101122
2015-02-28T00:42:43.735Z,101131
2015-02-28T00:42:57.138Z,101121
2015-02-28T00:43:10.665Z,101130
2015-02-28T00:43:24.166Z,101130
2015-02-28T00:43:37.551Z,101133
2015-02-28T00:43:51.013Z,101137
2015-02-28T00:44:04.539Z,101146
2015-02-28T00:44:17.965Z,101130
2015-02-28T00:44:31.374Z,101131
2015-02-28T00:44:44.895Z,101134
2015-02-28T00:44:58.340Z,101143
2015-02-28T00:45:11.699Z,101143
2015-02-28T00:45:25.234Z,101124
2015-02-28T00:45:38.721Z,101143
2015-02-28T00:45:52.122Z,101140
2015-02-28T00:46:06.486Z,101124
2015-02-28T00:46:19.968Z,101134
2015-02-28T00:46:33.348Z,101127
2015-02-28T00:46:46.836Z,101121
2015-02-28T00:47:00.244Z,101127
2015-02-28T00:47:13.775Z,101140
2015-02-28T00:47:27.254Z,101146
2015-02-28T00:47:40.687Z,101137
2015-02-28T00:47:54.199Z,101124
2015-02-28T00:48:07.716Z,101128
2015-02-28T00:48:21.153Z,101121
2015-02-28T00:48:34.647Z,101131
2015-02-28T00:48:48.191Z,101121
2015-02-28T00:49:01.610Z,101121
2015-02-28T00:49:15.070Z,101134
2015-02-28T00:49:28.618Z,101137
2015-02-28T00:49:42.030Z,101125
2015-02-28T00:49:55.510Z,101128
2015-02-28T00:50:08.892Z,101146
2015-02-28T00:50:22.365Z,101137
2015-02-28T00:50:35.872Z,101140
2015-02-28T00:50:49.242Z,101143
2015-02-28T00:51:02.728Z,101140
2015-02-28T00:51:16.243Z,101122
2015-02-28T00:51:29.655Z,101134
2015-02-28T00:51:43.042Z,101131
2015-02-28T00:51:56.559Z,101131
2015-02-28T00:52:09.988Z,101134
2015-02-28T00:52:23.358Z,101140
2015-02-28T00:52:36.853Z,101128
2015-02-28T00:52:50.295Z,101131
2015-02-28T00:53:03.845Z,101134
2015-02-28T00:53:17.252Z,101131
2015-02-28T00:53:30.678Z,101141
2015-02-28T00:53:44.227Z,101134
2015-02-28T00:53:57.766Z,101128
2015-02-28T00:54:11.155Z,101132
2015-02-28T00:54:24.734Z,101129
2015-02-28T00:54:38.233Z,101132
2015-02-28T00:54:51.639Z,101138
2015-02-28T00:55:05.130Z,101138
2015-02-28T00:55:18.611Z,101147
2015-02-28T00:55:31.970Z,101132
2015-02-28T00:55:45.435Z,101129
2015-02-28T00:55:58.949Z,101141
2015-02-28T00:56:12.311Z,101138
2015-02-28T00:56:25.718Z,101135
2015-02-28T00:56:39.229Z,101138
2015-02-28T00:56:52.635Z,101141
2015-02-28T00:57:06.008Z,101129
2015-02-28T00:57:19.533Z,101138
2015-02-28T00:57:32.942Z,101145
2015-02-28T00:57:46.316Z,101145
2015-02-28T00:57:59.824Z,101135
2015-02-28T00:58:13.271Z,101129
2015-02-28T00:58:26.724Z,101151
2015-02-28T00:58:40.132Z,101135
2015-02-28T00:58:53.521Z,101132
2015-02-28T00:59:07.038Z,101132
2015-02-28T00:59:20.469Z,101129
2015-02-28T00:59:33.875Z,101135
2015-02-28T00:59:47.429Z,101123
2015-02-28T01:00:00.915Z,101132
2015-02-28T01:00:14.327Z,101135
2015-02-28T01:00:27.843Z,101129
2015-02-28T01:00:41.360Z,101145
2015-02-28T01:00:54.751Z,101136
2015-02-28T01:01:08.203Z,101133
2015-02-28T01:01:21.606Z,101133
2015-02-28T01:01:35.110Z,101130
2015-02-28T01:01:48.612Z,101136
2015-02-28T01:02:02.000Z,101136
2015-02-28T01:02:15.488Z,101136
2015-02-28T01:02:28.971Z,101124
2015-02-28T01:02:42.351Z,101121
2015-02-28T01:02:55.819Z,101133
2015-02-28T01:03:09.321Z,101136
2015-02-28T01:03:22.686Z,101133
2015-02-28T01:03:36.096Z,101136
2015-02-28T01:03:49.607Z,101146
2015-02-28T01:04:02.920Z,101130
2015-02-28T01:04:16.389Z,101127
2015-02-28T01:04:29.758Z,101133
2015-02-28T01:04:43.235Z,101130
2015-02-28T01:04:56.734Z,101133
2015-02-28T01:05:10.114Z,101146
2015-02-28T01:05:23.570Z,101139
2015-02-28T01:05:37.141Z,101136
2015-02-28T01:05:50.575Z,101130
2015-02-28T01:06:04.001Z,101136
2015-02-28T01:06:17.533Z,101133
2015-02-28T01:06:30.979Z,101127
2015-02-28T01:06:44.371Z,101136
2015-02-28T01:06:57.857Z,101133
2015-02-28T01:07:11.332Z,101133
2015-02-28T01:07:24.698Z,101136
2015-02-28T01:07:38.177Z,101127
2015-02-28T01:07:51.643Z,101130
2015-02-28T01:08:05.005Z,101124
2015-02-28T01:08:18.463Z,101133
2015-02-28T01:08:31.956Z,101130
2015-02-28T01:08:45.313Z,101145
2015-02-28T01:08:58.775Z,101136
2015-02-28T01:09:12.299Z,101124
2015-02-28T01:09:25.734Z,101133
2015-02-28T01:09:39.133Z,101136
2015-02-28T01:09:52.601Z,101127
2015-02-28T01:10:06.051Z,101130
2015-02-28T01:10:19.567Z,101133
2015-02-28T01:10:32.980Z,101139
2015-02-28T01:10:46.424Z,101127
2015-02-28T01:10:59.942Z,101127
2015-02-28T01:11:13.367Z,101139
2015-02-28T01:11:26.798Z,101130
2015-02-28T01:11:40.352Z,101133
2015-02-28T01:11:53.818Z,101133
2015-02-28T01:12:07.206Z,101136
2015-02-28T01:12:20.740Z,101133
2015-02-28T01:12:34.223Z,101133
2015-02-28T01:12:47.688Z,101130
2015-02-28T01:13:01.078Z,101139
2015-02-28T01:13:14.468Z,101121
2015-02-28T01:13:27.974Z,101139
2015-02-28T01:13:41.386Z,101124
2015-02-28T01:13:54.771Z,101124
2015-02-28T01:14:08.301Z,101114
2015-02-28T01:14:21.751Z,101133
2015-02-28T01:14:35.141Z,101130
2015-02-28T01:14:48.622Z,101120
2015-02-28T01:15:02.084Z,101123
2015-02-28T01:15:15.383Z,101126
2015-02-28T01:15:28.849Z,101132
2015-02-28T01:15:42.268Z,101129
2015-02-28T01:15:56.734Z,101136
2015-02-28T01:16:10.358Z,101123
2015-02-28T01:16:23.708Z,101114
2015-02-28T01:16:37.209Z,101136
2015-02-28T01:16:50.697Z,101129
2015-02-28T01:17:04.086Z,101139
2015-02-28T01:17:17.572Z,101132
2015-02-28T01:17:31.103Z,101145
2015-02-28T01:17:44.519Z,101129
2015-02-28T01:17:57.947Z,101120
2015-02-28T01:18:11.460Z,101129
2015-02-28T01:18:24.857Z,101113
2015-02-28T01:18:38.330Z,101129
2015-02-28T01:18:51.698Z,101138
2015-02-28T01:19:05.149Z,101126
2015-02-28T01:19:18.633Z,101126
2015-02-28T01:19:32.089Z,101122
2015-02-28T01:19:45.509Z,101113
2015-02-28T01:19:59.032Z,101128
2015-02-28T01:20:12.421Z,101128
2015-02-28T01:20:25.838Z,101125
2015-02-28T01:20:39.360Z,101128
2015-02-28T01:20:52.816Z,101134
2015-02-28T01:21:06.221Z,101131
2015-02-28T01:21:19.711Z,101131
2015-02-28T01:21:33.139Z,101125
2015-02-28T01:21:46.678Z,101128
2015-02-28T01:22:00.095Z,101119
2015-02-28T01:22:13.535Z,101140
2015-02-28T01:22:27.071Z,101122
2015-02-28T01:22:40.515Z,101137
2015-02-28T01:22:53.876Z,101128
2015-02-28T01:23:07.380Z,101131
2015-02-28T01:23:20.849Z,101119
2015-02-28T01:23:34.219Z,101131
2015-02-28T01:23:47.704Z,101121
2015-02-28T01:24:01.210Z,101134
2015-02-28T01:24:14.627Z,101131
2015-02-28T01:24:28.056Z,101131
2015-02-28T01:24:41.483Z,101134
2015-02-28T01:24:55.003Z,101118
2015-02-28T01:25:08.556Z,101121
2015-02-28T01:25:21.920Z,101121
2015-02-28T01:25:35.434Z,101136
2015-02-28T01:25:48.925Z,101142
2015-02-28T01:26:02.282Z,101130
2015-02-28T01:26:15.731Z,101127
2015-02-28T01:26:29.251Z,101133
2015-02-28T01:26:42.621Z,101118
2015-02-28T01:26:56.074Z,101124
2015-02-28T01:27:09.548Z,101139
2015-02-28T01:27:23.072Z,101139
2015-02-28T01:27:36.586Z,101124
2015-02-28T01:27:49.968Z,101130
2015-02-28T01:28:03.460Z,101136
2015-02-28T01:28:16.993Z,101115
2015-02-28T01:28:30.353Z,101139
2015-02-28T01:28:43.765Z,101130
2015-02-28T01:28:57.280Z,101121
2015-02-28T01:29:10.666Z,101124
2015-02-28T01:29:24.065Z,101130
2015-02-28T01:29:37.589Z,101130
2015-02-28T01:29:50.997Z,101127
2015-02-28T01:30:04.395Z,101127
2015-02-28T01:30:17.913Z,101133
2015-02-28T01:30:31.356Z,101127
2015-02-28T01:30:44.727Z,101130
2015-02-28T01:30:58.201Z,101142
2015-02-28T01:31:11.671Z,101130
2015-02-28T01:31:25.039Z,101130
2015-02-28T01:31:38.498Z,101136
2015-02-28T01:31:52.023Z,101136
2015-02-28T01:32:05.407Z,101136
2015-02-28T01:32:18.845Z,101127
2015-02-28T01:32:32.362Z,101142
2015-02-28T01:32:45.767Z,101145
2015-02-28T01:32:59.279Z,101133
2015-02-28T01:33:12.713Z,101127
2015-02-28T01:33:26.191Z,101133
2015-02-28T01:33:39.722Z,101139
2015-02-28T01:33:53.112Z,101133
2015-02-28T01:34:06.627Z,101133
2015-02-28T01:34:20.077Z,101142
2015-02-28T01:34:33.461Z,101139
2015-02-28T01:34:46.889Z,101127
2015-02-28T01:35:00.415Z,101133
2015-02-28T01:35:13.849Z,101142
2015-02-28T01:35:27.204Z,101139
2015-02-28T01:35:40.709Z,101151
2015-02-28T01:35:54.140Z,101139
2015-02-28T01:36:07.655Z,101133
2015-02-28T01:36:21.047Z,101151
2015-02-28T01:36:34.428Z,101139
2015-02-28T01:36:47.958Z,101139
2015-02-28T01:37:01.400Z,101151
2015-02-28T01:37:14.782Z,101145
2015-02-28T01:37:28.286Z,101139
2015-02-28T01:37:41.739Z,101148
2015-02-28T01:37:55.144Z,101151
2015-02-28T01:38:08.650Z,101145
2015-02-28T01:38:22.159Z,101151
2015-02-28T01:38:35.611Z,101142
2015-02-28T01:38:49.053Z,101139
2015-02-28T01:39:02.442Z,101139
2015-02-28T01:39:16.041Z,101139
2015-02-28T01:39:29.540Z,101148
2015-02-28T01:39:42.993Z,101129
2015-02-28T01:39:56.479Z,101138
2015-02-28T01:40:09.963Z,101148
2015-02-28T01:40:23.340Z,101160
2015-02-28T01:40:36.814Z,101138
2015-02-28T01:40:50.335Z,101151
2015-02-28T01:41:03.698Z,101136
2015-02-28T01:41:20.637Z,101148
2015-02-28T01:41:34.074Z,101151
2015-02-28T01:41:47.550Z,101132
2015-02-28T01:42:01.037Z,101145
2015-02-28T01:42:14.406Z,101135
2015-02-28T01:42:27.888Z,101141
2015-02-28T01:42:41.417Z,101144
2015-02-28T01:42:54.796Z,101144
2015-02-28T01:43:08.244Z,101147
2015-02-28T01:43:21.756Z,101148
2015-02-28T01:43:35.149Z,101132
2015-02-28T01:43:48.579Z,101135
2015-02-28T01:44:02.117Z,101151
2015-02-28T01:44:15.533Z,101154
2015-02-28T01:44:29.014Z,101145
2015-02-28T01:44:42.462Z,101148
2015-02-28T01:44:55.928Z,101145
2015-02-28T01:45:09.462Z,101145
2015-02-28T01:45:22.894Z,101136
2015-02-28T01:45:36.343Z,101148
2015-02-28T01:45:49.852Z,101148
2015-02-28T01:46:03.839Z,101145
2015-02-28T01:46:17.206Z,101145
2015-02-28T01:46:30.736Z,101145
2015-02-28T01:46:44.189Z,101142
2015-02-28T01:46:57.544Z,101148
2015-02-28T01:47:11.028Z,101148
2015-02-28T01:47:24.421Z,101142
2015-02-28T01:47:37.909Z,101133
2015-02-28T01:47:51.369Z,101151
2015-02-28T01:48:04.727Z,101130
2015-02-28T01:48:18.222Z,101142
2015-02-28T01:48:31.697Z,101145
2015-02-28T01:48:45.106Z,101136
2015-02-28T01:48:58.593Z,101136
2015-02-28T01:49:12.100Z,101145
2015-02-28T01:49:25.494Z,101139
2015-02-28T01:49:38.997Z,101145
2015-02-28T01:49:52.563Z,101145
2015-02-28T01:50:05.966Z,101139
2015-02-28T01:50:19.431Z,101142
2015-02-28T01:50:32.811Z,101148
2015-02-28T01:50:46.340Z,101139
2015-02-28T01:50:59.834Z,101145
2015-02-28T01:51:13.187Z,101148
2015-02-28T01:51:26.638Z,101148
2015-02-28T01:51:40.142Z,101136
2015-02-28T01:51:53.543Z,101151
2015-02-28T01:52:06.982Z,101142
2015-02-28T01:52:20.474Z,101151
2015-02-28T01:52:33.881Z,101148
2015-02-28T01:52:47.292Z,101139
2015-02-28T01:53:00.799Z,101151
2015-02-28T01:53:14.234Z,101142
2015-02-28T01:53:27.620Z,101142
2015-02-28T01:53:41.140Z,101145
2015-02-28T01:53:54.638Z,101145
2015-02-28T01:54:08.026Z,101139
2015-02-28T01:54:21.574Z,101145
2015-02-28T01:54:35.083Z,101136
2015-02-28T01:54:48.548Z,101148
2015-02-28T01:55:02.027Z,101148
2015-02-28T01:55:15.527Z,101142
2015-02-28T01:55:28.885Z,101151
2015-02-28T01:55:42.343Z,101152
2015-02-28T01:55:55.784Z,101161
2015-02-28T01:56:09.265Z,101139
2015-02-28T01:56:22.732Z,101149
2015-02-28T01:56:36.110Z,101155
2015-02-28T01:56:49.565Z,101142
2015-02-28T01:57:03.081Z,101149
2015-02-28T01:57:16.457Z,101134
2015-02-28T01:57:29.862Z,101143
2015-02-28T01:57:43.344Z,101146
2015-02-28T01:57:56.770Z,101152
2015-02-28T01:58:10.164Z,101143
2015-02-28T01:58:23.692Z,101149
2015-02-28T01:58:37.140Z,101143
2015-02-28T01:58:50.635Z,101137
2015-02-28T01:59:04.031Z,101143
2015-02-28T01:59:17.489Z,101149
2015-02-28T01:59:31.022Z,101149
2015-02-28T01:59:44.480Z,101159
2015-02-28T01:59:57.906Z,101140
2015-02-28T02:00:11.459Z,101140
2015-02-28T02:00:24.913Z,101140
2015-02-28T02:00:38.377Z,101140
2015-02-28T02:00:51.879Z,101143
2015-02-28T02:01:05.323Z,101153
2015-02-28T02:01:18.682Z,101143
2015-02-28T02:01:32.155Z,101143
2015-02-28T02:01:45.537Z,101140
2015-02-28T02:01:59.042Z,101143
2015-02-28T02:02:12.475Z,101140
2015-02-28T02:02:25.846Z,101146
2015-02-28T02:02:39.375Z,101159
2015-02-28T02:02:52.826Z,101146
2015-02-28T02:03:06.213Z,101153
2015-02-28T02:03:19.690Z,101147
2015-02-28T02:03:33.301Z,101143
2015-02-28T02:03:46.584Z,101134
2015-02-28T02:04:00.062Z,101140
2015-02-28T02:04:13.600Z,101147
2015-02-28T02:04:26.992Z,101140
2015-02-28T02:04:40.490Z,101149
2015-02-28T02:04:53.900Z,101143
2015-02-28T02:05:07.399Z,101146
2015-02-28T02:05:20.934Z,101146
2015-02-28T02:05:34.368Z,101143
2015-02-28T02:05:47.888Z,101134
2015-02-28T02:06:01.430Z,101137
2015-02-28T02:06:14.824Z,101140
2015-02-28T02:06:28.275Z,101143
2015-02-28T02:06:41.781Z,101140
2015-02-28T02:06:55.182Z,101146
2015-02-28T02:07:08.599Z,101143
2015-02-28T02:07:22.041Z,101140
2015-02-28T02:07:35.491Z,101140
2015-02-28T02:07:48.985Z,101143
2015-02-28T02:08:02.355Z,101137
2015-02-28T02:08:15.774Z,101140
2015-02-28T02:08:29.301Z,101134
2015-02-28T02:08:42.705Z,101149
2015-02-28T02:08:56.106Z,101143
2015-02-28T02:09:09.619Z,101140
2015-02-28T02:09:23.042Z,101140
2015-02-28T02:09:36.403Z,101140
2015-02-28T02:09:49.955Z,101149
2015-02-28T02:10:03.434Z,101134
2015-02-28T02:10:16.898Z,101143
2015-02-28T02:10:30.319Z,101137
2015-02-28T02:10:43.734Z,101149
2015-02-28T02:10:57.281Z,101149
2015-02-28T02:11:10.713Z,101134
2015-02-28T02:11:24.109Z,101155
2015-02-28T02:11:37.634Z,101143
2015-02-28T02:11:51.129Z,101134
2015-02-28T02:12:04.548Z,101152
2015-02-28T02:12:18.039Z,101149
2015-02-28T02:12:31.509Z,101149
2015-02-28T02:12:44.861Z,101140
2015-02-28T02:12:58.312Z,101143
2015-02-28T02:13:11.749Z,101140
2015-02-28T02:13:25.245Z,101140
2015-02-28T02:13:38.687Z,101143
2015-02-28T02:13:52.045Z,101155
2015-02-28T02:14:05.546Z,101130
2015-02-28T02:14:19.019Z,101133
2015-02-28T02:14:32.374Z,101143
2015-02-28T02:14:45.804Z,101139
2015-02-28T02:14:59.316Z,101149
2015-02-28T02:15:12.705Z,101149
2015-02-28T02:15:26.136Z,101140
2015-02-28T02:15:39.694Z,101140
2015-02-28T02:15:53.087Z,101140
2015-02-28T02:16:07.683Z,101143
2015-02-28T02:16:21.187Z,101152
2015-02-28T02:16:34.626Z,101143
2015-02-28T02:16:48.016Z,101137
2015-02-28T02:17:01.562Z,101143
2015-02-28T02:17:15.031Z,101152
2015-02-28T02:17:28.442Z,101143
2015-02-28T02:17:41.951Z,101146
2015-02-28T02:17:55.737Z,101140
2015-02-28T02:18:09.160Z,101143
2015-02-28T02:18:22.607Z,101143
2015-02-28T02:18:36.109Z,101137
2015-02-28T02:18:49.511Z,101155
2015-02-28T02:19:02.979Z,101149
2015-02-28T02:19:16.371Z,101136
2015-02-28T02:19:29.852Z,101136
2015-02-28T02:19:43.324Z,101139
2015-02-28T02:19:56.734Z,101148
2015-02-28T02:20:10.195Z,101142
2015-02-28T02:20:23.691Z,101142
2015-02-28T02:20:37.098Z,101148
2015-02-28T02:20:50.502Z,101145
2015-02-28T02:21:04.009Z,101154
2015-02-28T02:21:17.400Z,101142
2015-02-28T02:21:30.803Z,101151
2015-02-28T02:21:44.256Z,101136
2015-02-28T02:21:57.763Z,101148
2015-02-28T02:22:11.299Z,101145
2015-02-28T02:22:24.728Z,101148
2015-02-28T02:22:38.184Z,101145
2015-02-28T02:22:51.735Z,101142
2015-02-28T02:23:05.173Z,101157
2015-02-28T02:23:18.599Z,101139
2015-02-28T02:23:32.153Z,101142
2015-02-28T02:23:45.601Z,101148
2015-02-28T02:23:58.988Z,101157
2015-02-28T02:24:12.531Z,101136
2015-02-28T02:24:25.977Z,101142
2015-02-28T02:24:39.428Z,101145
2015-02-28T02:24:52.856Z,101148
2015-02-28T02:25:06.314Z,101142
2015-02-28T02:25:19.810Z,101142
2015-02-28T02:25:33.294Z,101139
2015-02-28T02:25:46.681Z,101151
2015-02-28T02:26:00.199Z,101151
2015-02-28T02:26:13.645Z,101148
2015-02-28T02:26:26.988Z,101154
2015-02-28T02:26:40.481Z,101154
2015-02-28T02:26:53.955Z,101142
2015-02-28T02:27:07.336Z,101139
2015-02-28T02:27:20.785Z,101157
2015-02-28T02:27:34.199Z,101151
2015-02-28T02:27:47.717Z,101145
2015-02-28T02:28:01.197Z,101142
2015-02-28T02:28:14.581Z,101151
2015-02-28T02:28:28.093Z,101157
2015-02-28T02:28:41.590Z,101154
2015-02-28T02:28:54.988Z,101145
2015-02-28T02:29:08.476Z,101138
2015-02-28T02:29:22.021Z,101144
2015-02-28T02:29:35.418Z,101147
2015-02-28T02:29:48.826Z,101147
2015-02-28T02:30:02.337Z,101154
2015-02-28T02:30:15.731Z,101151
2015-02-28T02:30:29.214Z,101151
2015-02-28T02:30:42.581Z,101144
2015-02-28T02:30:56.033Z,101141
2015-02-28T02:31:09.546Z,101150
2015-02-28T02:31:22.904Z,101156
2015-02-28T02:31:36.337Z,101129
2015-02-28T02:31:49.841Z,101144
2015-02-28T02:32:03.274Z,101150
2015-02-28T02:32:16.673Z,101150
2015-02-28T02:32:30.200Z,101147
2015-02-28T02:32:43.622Z,101144
2015-02-28T02:32:56.994Z,101132
2015-02-28T02:33:10.477Z,101154
2015-02-28T02:33:23.909Z,101138
2015-02-28T02:33:37.432Z,101138
2015-02-28T02:33:50.842Z,101151
2015-02-28T02:34:04.255Z,101148
2015-02-28T02:34:17.804Z,101154
2015-02-28T02:34:31.265Z,101154
2015-02-28T02:34:44.686Z,101160
2015-02-28T02:34:58.252Z,101144
2015-02-28T02:35:11.763Z,101144
2015-02-28T02:35:25.137Z,101132
2015-02-28T02:35:38.665Z,101150
2015-02-28T02:35:52.132Z,101150
2015-02-28T02:36:05.563Z,101156
2015-02-28T02:36:19.027Z,101156
2015-02-28T02:36:32.393Z,101156
2015-02-28T02:36:45.892Z,101141
2015-02-28T02:36:59.366Z,101144
2015-02-28T02:37:12.744Z,101144
2015-02-28T02:37:26.254Z,101147
2015-02-28T02:37:39.742Z,101150
2015-02-28T02:37:53.125Z,101156
2015-02-28T02:38:06.581Z,101150
2015-02-28T02:38:20.116Z,101153
2015-02-28T02:38:33.483Z,101156
2015-02-28T02:38:46.909Z,101150
2015-02-28T02:39:00.408Z,101153
2015-02-28T02:39:13.813Z,101141
2015-02-28T02:39:27.209Z,101147
2015-02-28T02:39:40.754Z,101156
2015-02-28T02:39:54.207Z,101150
2015-02-28T02:40:07.627Z,101164
2015-02-28T02:40:21.145Z,101156
2015-02-28T02:40:34.708Z,101153
2015-02-28T02:40:48.103Z,101156
2015-02-28T02:41:01.586Z,101159
2015-02-28T02:41:15.058Z,101159
2015-02-28T02:41:28.436Z,101159
2015-02-28T02:41:41.890Z,101156
2015-02-28T02:41:55.255Z,101156
2015-02-28T02:42:08.771Z,101153
2015-02-28T02:42:22.221Z,101141
2015-02-28T02:42:35.577Z,101170
2015-02-28T02:42:49.055Z,101164
2015-02-28T02:43:02.543Z,101153
2015-02-28T02:43:15.913Z,101147
2015-02-28T02:43:29.401Z,101153
2015-02-28T02:43:42.910Z,101153
2015-02-28T02:43:56.279Z,101141
2015-02-28T02:44:09.733Z,101160
2015-02-28T02:44:23.252Z,101157
2015-02-28T02:44:36.696Z,101165
2015-02-28T02:44:50.201Z,101154
2015-02-28T02:45:03.641Z,101157
2015-02-28T02:45:17.114Z,101163
2015-02-28T02:45:30.651Z,101157
2015-02-28T02:45:44.136Z,101154
2015-02-28T02:45:58.541Z,101150
2015-02-28T02:46:12.197Z,101156
2015-02-28T02:46:25.636Z,101147
2015-02-28T02:46:39.036Z,101165
2015-02-28T02:46:52.552Z,101162
2015-02-28T02:47:06.021Z,101153
2015-02-28T02:47:19.401Z,101165
2015-02-28T02:47:32.878Z,101165
2015-02-28T02:47:46.320Z,101168
2015-02-28T02:47:59.840Z,101160